Time;durP1;ratioP1;P1;durP2;ratioP2;P2;SDS_P1;SDS_P2;PMS_P1;PMS_P2;Temp;Humidity;BMP_temperature;BMP_pressure;BME280_temperature;BME280_humidity;BME280_pressure;Samples;Min_cycle;Max_cycle;Signal;HPM_P1;HPM_P2
2021/06/19 00:09:47;;;;;;;17.00;12.90;;;24.40;72.40;;;;;;20874069;28;20489;-21
2021/06/19 00:19:47;;;;;;;15.15;13.85;;;24.40;72.30;;;;;;20898798;28;20040;-21
2021/06/19 00:29:48;;;;;;;14.63;12.98;;;24.50;72.80;;;;;;20911259;28;20472;-21
2021/06/19 00:39:48;;;;;;;15.82;14.43;;;24.50;73.00;;;;;;20898275;28;20048;-21
2021/06/19 00:49:49;;;;;;;18.75;16.15;;;24.50;73.00;;;;;;20910320;28;20090;-21
2021/06/19 00:59:50;;;;;;;17.65;15.10;;;24.50;73.30;;;;;;20908692;28;20033;-20
2021/06/19 01:09:50;;;;;;;17.05;15.35;;;24.40;73.00;;;;;;20878748;28;20064;-21
2021/06/19 01:20:09;;;;;;;16.88;15.00;;;24.40;72.90;;;;;;20871068;28;20402;-21
2021/06/19 01:30:10;;;;;;;18.60;14.80;;;24.40;72.80;;;;;;20867448;28;20029;-19
2021/06/19 01:40:26;;;;;;;15.57;14.00;;;24.40;72.00;;;;;;20862170;28;20028;-20
2021/06/19 01:50:27;;;;;;;16.02;13.60;;;24.40;72.00;;;;;;20866428;28;20127;-20
2021/06/19 02:00:35;;;;;;;14.85;13.40;;;24.40;72.40;;;;;;20860821;28;20029;-20
2021/06/19 02:10:38;;;;;;;;;;;24.30;71.70;;;;;;20852775;28;20097;-20
2021/06/19 02:20:38;;;;;;;14.75;13.02;;;24.40;71.10;;;;;;20869846;28;20023;-20
2021/06/19 02:30:45;;;;;;;19.25;12.68;;;24.40;71.40;;;;;;20880075;28;20076;-20
2021/06/19 02:40:46;;;;;;;14.02;12.60;;;24.40;71.00;;;;;;20869276;28;20083;-20
2021/06/19 02:50:47;;;;;;;17.35;13.50;;;24.40;71.40;;;;;;20880791;28;20030;-20
2021/06/19 03:00:48;;;;;;;14.68;12.88;;;24.40;71.20;;;;;;20874119;28;20548;-20
2021/06/19 03:10:49;;;;;;;16.50;13.52;;;24.40;71.30;;;;;;20884420;28;20382;-20
2021/06/19 03:20:50;;;;;;;18.37;13.40;;;24.40;71.70;;;;;;20875861;28;20025;-20
2021/06/19 03:30:50;;;;;;;14.25;12.90;;;24.40;70.90;;;;;;20868453;28;20036;-21
2021/06/19 03:40:51;;;;;;;14.20;12.27;;;24.40;70.60;;;;;;20909742;28;20084;-20
2021/06/19 03:50:51;;;;;;;14.02;12.77;;;24.40;70.80;;;;;;20903959;28;20447;-21
2021/06/19 04:00:55;;;;;;;14.83;12.03;;;24.40;70.80;;;;;;20914532;28;20037;-20
2021/06/19 04:10:56;;;;;;;12.88;11.30;;;24.40;71.10;;;;;;20931847;28;20455;-20
2021/06/19 04:20:57;;;;;;;14.18;11.48;;;24.40;71.30;;;;;;20900802;28;20025;-21
2021/06/19 04:30:59;;;;;;;13.10;11.70;;;24.40;71.40;;;;;;20919825;28;20127;-20
2021/06/19 04:41:07;;;;;;;13.00;11.00;;;24.40;71.10;;;;;;20920887;28;20017;-22
2021/06/19 04:51:07;;;;;;;17.05;12.73;;;24.40;71.40;;;;;;20900911;28;20036;-20
2021/06/19 05:01:08;;;;;;;12.87;11.10;;;24.50;71.50;;;;;;20913048;28;20269;-20
2021/06/19 05:11:09;;;;;;;11.50;9.77;;;24.40;71.30;;;;;;20894228;28;21026;-21
2021/06/19 05:21:09;;;;;;;15.57;8.20;;;24.50;72.10;;;;;;20890201;28;20040;-21
2021/06/19 05:31:10;;;;;;;12.30;5.88;;;24.50;70.50;;;;;;20928795;28;20114;-21
2021/06/19 05:41:11;;;;;;;15.90;5.93;;;24.40;69.20;;;;;;20909022;28;20029;-22
2021/06/19 05:51:11;;;;;;;9.30;5.47;;;24.50;68.60;;;;;;20921687;28;20033;-21
2021/06/19 06:01:12;;;;;;;5.40;4.20;;;24.50;68.00;;;;;;20883685;23;20061;-19
2021/06/19 06:11:12;;;;;;;8.48;5.03;;;24.50;67.60;;;;;;20818869;28;20029;-21
2021/06/19 06:21:13;;;;;;;9.18;4.55;;;24.50;67.70;;;;;;20817929;28;20036;-20
2021/06/19 06:31:14;;;;;;;6.10;4.05;;;24.50;67.80;;;;;;20820779;28;20021;-19
2021/06/19 06:41:14;;;;;;;6.35;4.20;;;24.50;68.00;;;;;;20818243;28;20025;-19
2021/06/19 06:51:16;;;;;;;9.63;5.22;;;24.50;68.10;;;;;;20821864;28;20052;-20
2021/06/19 07:01:17;;;;;;;12.63;5.47;;;24.50;68.10;;;;;;20826130;28;20512;-20
2021/06/19 07:11:20;;;;;;;9.35;4.93;;;24.50;68.00;;;;;;20822481;28;20045;-20
2021/06/19 07:21:21;;;;;;;5.60;3.92;;;24.50;68.00;;;;;;20831113;28;20061;-19
2021/06/19 07:31:21;;;;;;;9.32;4.28;;;24.60;67.90;;;;;;20834391;28;20030;-19
2021/06/19 07:41:22;;;;;;;4.82;4.32;;;24.60;67.80;;;;;;20829392;28;20032;-21
2021/06/19 07:51:23;;;;;;;6.43;4.53;;;24.60;67.80;;;;;;20817454;28;20032;-19
2021/06/19 08:01:23;;;;;;;6.10;4.53;;;24.60;67.80;;;;;;20806868;28;20477;-20
2021/06/19 08:11:26;;;;;;;6.97;5.13;;;24.60;67.80;;;;;;20821926;28;20033;-21
2021/06/19 08:21:27;;;;;;;9.45;5.53;;;24.70;67.70;;;;;;20814936;28;20041;-20
2021/06/19 08:31:27;;;;;;;8.50;4.28;;;24.70;67.60;;;;;;20818963;28;20030;-20
2021/06/19 08:41:28;;;;;;;10.95;5.07;;;24.70;67.50;;;;;;20822464;28;20033;-20
2021/06/19 08:51:29;;;;;;;6.13;5.10;;;24.70;67.50;;;;;;20825277;28;20421;-18
2021/06/19 09:01:29;;;;;;;7.25;4.40;;;24.70;67.40;;;;;;20802072;28;20033;-20
2021/06/19 09:11:37;;;;;;;6.07;4.70;;;24.70;67.40;;;;;;20822723;28;20021;-20
2021/06/19 09:21:38;;;;;;;5.20;4.20;;;24.70;67.30;;;;;;20823177;28;20052;-20
2021/06/19 09:31:53;;;;;;;7.72;4.90;;;24.70;67.30;;;;;;20818440;28;20091;-20
2021/06/19 09:41:59;;;;;;;7.20;4.53;;;24.70;67.20;;;;;;20810998;28;20083;-20
2021/06/19 09:52:00;;;;;;;6.03;5.28;;;24.70;67.10;;;;;;20805053;28;20040;-21
2021/06/19 10:02:03;;;;;;;8.63;4.65;;;24.80;67.00;;;;;;20793810;28;20053;-20
2021/06/19 10:12:04;;;;;;;9.10;4.32;;;24.80;67.40;;;;;;20778776;28;20030;-21
2021/06/19 10:22:04;;;;;;;7.03;4.45;;;24.80;66.90;;;;;;20773523;28;20026;-20
2021/06/19 10:32:05;;;;;;;6.67;4.50;;;24.80;66.90;;;;;;20817550;28;20043;-20
2021/06/19 10:42:26;;;;;;;5.45;4.30;;;24.80;66.80;;;;;;20816262;28;20503;-20
2021/06/19 10:52:32;;;;;;;14.23;3.80;;;24.80;66.70;;;;;;20833647;28;20041;-21
2021/06/19 11:02:48;;;;;;;7.75;4.05;;;24.80;66.30;;;;;;20830776;28;20048;-20
2021/06/19 11:12:49;;;;;;;7.72;4.72;;;24.90;66.80;;;;;;20832827;28;20021;-21
2021/06/19 11:22:52;;;;;;;6.53;4.20;;;24.80;66.40;;;;;;20833558;28;20065;-16
2021/06/19 11:32:53;;;;;;;5.43;3.75;;;24.90;66.40;;;;;;20832912;28;20395;-19
2021/06/19 11:42:54;;;;;;;9.30;4.90;;;24.80;66.40;;;;;;20832306;28;20017;-17
2021/06/19 11:52:54;;;;;;;5.75;3.50;;;24.90;66.30;;;;;;20829097;28;20431;-17
2021/06/19 12:03:00;;;;;;;7.35;3.88;;;24.90;66.30;;;;;;20842411;22;20033;-21
2021/06/19 12:13:03;;;;;;;5.18;4.28;;;24.90;66.20;;;;;;20817012;28;20065;-21
2021/06/19 12:23:13;;;;;;;6.57;3.42;;;24.90;66.20;;;;;;20781961;28;20474;-21
2021/06/19 12:33:22;;;;;;;5.75;3.13;;;24.90;66.10;;;;;;20827766;28;20032;-21
2021/06/19 12:43:24;;;;;;;5.55;3.25;;;25.00;66.00;;;;;;20827203;28;20029;-21
2021/06/19 12:53:26;;;;;;;5.32;3.92;;;25.00;65.70;;;;;;20827248;28;20473;-21
2021/06/19 13:03:35;;;;;;;4.80;3.20;;;25.00;65.60;;;;;;20774793;28;20029;-21
2021/06/19 13:13:45;;;;;;;4.75;3.03;;;25.00;65.70;;;;;;20773142;28;20045;-21
2021/06/19 13:23:45;;;;;;;5.85;3.58;;;25.00;65.70;;;;;;20813413;28;20044;-21
2021/06/19 13:34:10;;;;;;;5.25;3.47;;;25.00;65.80;;;;;;20808551;28;20056;-21
2021/06/19 13:44:14;;;;;;;7.65;3.65;;;25.00;65.70;;;;;;20795044;28;20113;-20
2021/06/19 13:54:15;;;;;;;5.22;3.20;;;25.00;65.90;;;;;;20779066;28;20034;-21
2021/06/19 14:04:16;;;;;;;4.30;3.22;;;25.10;65.80;;;;;;20811718;28;20104;-19
2021/06/19 14:14:16;;;;;;;4.95;3.22;;;25.10;65.90;;;;;;20787565;28;20033;-21
2021/06/19 14:24:19;;;;;;;4.32;3.30;;;25.10;65.90;;;;;;20814237;28;20022;-20
2021/06/19 14:34:19;;;;;;;5.13;3.25;;;25.10;65.90;;;;;;20747522;28;20065;-21
2021/06/19 14:44:20;;;;;;;4.72;2.90;;;25.20;65.90;;;;;;20739298;28;20033;-19
2021/06/19 14:54:20;;;;;;;3.47;2.70;;;25.20;65.80;;;;;;20764957;28;20044;-19
2021/06/19 15:04:21;;;;;;;5.80;2.53;;;25.20;65.60;;;;;;20819957;28;20113;-19
2021/06/19 15:14:22;;;;;;;4.32;2.58;;;25.20;65.40;;;;;;20820395;28;20494;-20
2021/06/19 15:24:22;;;;;;;4.60;2.80;;;25.30;65.40;;;;;;20819949;28;20075;-20
2021/06/19 15:34:23;;;;;;;7.47;2.83;;;25.20;65.30;;;;;;20829201;28;20049;-20
2021/06/19 15:44:24;;;;;;;4.30;2.72;;;25.30;65.50;;;;;;20842758;28;20037;-20
2021/06/19 15:54:24;;;;;;;3.67;2.60;;;25.30;65.50;;;;;;20855007;28;20105;-21
2021/06/19 16:04:25;;;;;;;6.75;4.00;;;25.30;65.50;;;;;;20857279;28;20028;-21
2021/06/19 16:14:26;;;;;;;4.43;2.67;;;25.30;65.60;;;;;;20842024;28;20025;-20
2021/06/19 16:24:26;;;;;;;6.95;3.55;;;25.20;65.50;;;;;;20838087;28;20505;-21
2021/06/19 16:34:27;;;;;;;4.70;3.00;;;25.30;65.40;;;;;;20828485;28;20025;-21
2021/06/19 16:44:27;;;;;;;7.60;3.43;;;25.40;65.10;;;;;;20826995;28;20674;-21
2021/06/19 16:54:28;;;;;;;6.93;3.80;;;25.50;64.90;;;;;;20812861;28;20056;-21
2021/06/19 17:04:29;;;;;;;3.65;3.00;;;25.60;64.80;;;;;;20812834;28;20036;-21
2021/06/19 17:14:29;;;;;;;4.75;2.70;;;25.60;64.70;;;;;;20794410;28;20175;-21
2021/06/19 17:24:30;;;;;;;5.87;3.40;;;25.50;64.80;;;;;;20804761;28;20033;-20
2021/06/19 17:34:31;;;;;;;5.43;2.83;;;25.40;64.90;;;;;;20811424;28;20041;-21
2021/06/19 17:44:32;;;;;;;4.97;3.13;;;25.40;65.00;;;;;;20809483;28;20029;-21
2021/06/19 17:54:32;;;;;;;4.15;3.05;;;25.40;65.10;;;;;;20805592;28;20049;-21
2021/06/19 18:04:33;;;;;;;5.85;3.33;;;25.40;65.10;;;;;;20817348;23;20084;-20
2021/06/19 18:14:33;;;;;;;4.38;3.00;;;25.30;65.00;;;;;;20697839;28;20061;-21
2021/06/19 18:24:34;;;;;;;5.60;2.75;;;25.40;65.10;;;;;;20670118;28;20682;-20
2021/06/19 18:34:38;;;;;;;2.85;2.30;;;25.30;65.10;;;;;;20659158;28;20483;-20
2021/06/19 18:44:38;;;;;;;6.30;2.85;;;25.30;65.10;;;;;;20668062;28;20034;-21
2021/06/19 18:54:45;;;;;;;4.33;3.10;;;25.30;65.20;;;;;;20654988;28;20097;-20
2021/06/19 19:04:46;;;;;;;3.55;2.45;;;25.30;65.10;;;;;;20659233;28;20516;-19
2021/06/19 19:14:47;;;;;;;6.53;3.10;;;25.30;65.20;;;;;;20681788;28;20034;-19
2021/06/19 19:24:48;;;;;;;5.30;2.55;;;25.20;65.10;;;;;;20669774;28;20081;-20
2021/06/19 19:34:48;;;;;;;4.72;2.63;;;25.20;65.10;;;;;;20667968;28;20022;-19
2021/06/19 19:44:49;;;;;;;3.65;2.50;;;25.20;65.10;;;;;;20669069;28;20047;-19
2021/06/19 19:54:56;;;;;;;5.05;3.10;;;25.20;65.10;;;;;;20694791;28;20031;-20
2021/06/19 20:04:56;;;;;;;3.87;2.87;;;25.20;65.10;;;;;;20691638;28;20026;-20
2021/06/19 20:14:57;;;;;;;3.50;2.45;;;25.20;65.10;;;;;;20699493;28;20045;-20
2021/06/19 20:24:58;;;;;;;4.47;2.60;;;25.20;65.10;;;;;;20688380;28;20053;-20
2021/06/19 20:34:59;;;;;;;5.78;2.63;;;25.20;65.10;;;;;;20693696;28;20041;-20
2021/06/19 20:45:01;;;;;;;3.22;2.65;;;25.20;65.10;;;;;;20684907;28;20125;-20
2021/06/19 20:55:03;;;;;;;4.93;2.88;;;25.20;65.30;;;;;;20693092;28;20564;-19
2021/06/19 21:05:06;;;;;;;6.45;2.45;;;25.20;65.50;;;;;;20676116;28;20418;-20
2021/06/19 21:15:08;;;;;;;4.78;2.83;;;25.20;65.10;;;;;;20672957;28;20061;-20
2021/06/19 21:25:09;;;;;;;7.22;3.72;;;25.20;65.40;;;;;;20686053;28;20022;-19
2021/06/19 21:35:11;;;;;;;5.78;3.03;;;25.20;64.30;;;;;;20683707;28;20152;-20
2021/06/19 21:45:11;;;;;;;10.60;3.63;;;25.10;63.90;;;;;;20669531;28;20027;-20
2021/06/19 21:55:14;;;;;;;15.30;4.00;;;25.20;64.90;;;;;;20614705;28;20041;-21
2021/06/19 22:05:14;;;;;;;9.15;4.15;;;25.10;65.90;;;;;;20631798;28;20101;-20
2021/06/19 22:15:15;;;;;;;9.13;3.42;;;25.20;65.70;;;;;;20588989;28;20135;-20
2021/06/19 22:25:17;;;;;;;6.38;3.40;;;25.20;65.00;;;;;;20668813;28;20031;-19
2021/06/19 22:35:20;;;;;;;7.38;3.85;;;25.20;64.60;;;;;;20628557;28;20031;-19
2021/06/19 22:45:22;;;;;;;6.68;3.42;;;25.10;64.00;;;;;;20618641;28;20555;-19
2021/06/19 22:55:23;;;;;;;4.50;2.92;;;25.00;63.20;;;;;;20665990;28;20053;-19
2021/06/19 23:05:24;;;;;;;4.93;2.80;;;25.10;62.80;;;;;;20670733;28;20398;-19
2021/06/19 23:15:24;;;;;;;3.43;3.10;;;25.00;62.90;;;;;;20673334;28;20022;-20
2021/06/19 23:25:25;;;;;;;4.17;2.50;;;25.00;62.40;;;;;;20669312;28;20108;-20
2021/06/19 23:35:26;;;;;;;4.13;2.65;;;25.00;62.20;;;;;;20670302;28;20442;-20
2021/06/19 23:45:26;;;;;;;5.13;2.60;;;25.00;61.90;;;;;;20670244;28;20044;-20
2021/06/19 23:55:28;;;;;;;5.93;2.90;;;25.00;61.90;;;;;;20666374;28;20478;-20
